createdAt,value
2022-10-26T00:00:25.769Z,9.22
2022-10-26T00:01:26.010Z,9.19
2022-10-26T00:02:26.131Z,9.17
2022-10-26T00:03:26.223Z,9.15
2022-10-26T00:04:26.377Z,9.12
2022-10-26T00:05:26.530Z,9.12
2022-10-26T00:06:26.666Z,9.16
2022-10-26T00:07:26.922Z,9.20
2022-10-26T00:08:26.976Z,9.22
2022-10-26T00:09:27.116Z,9.24
2022-10-26T00:10:29.540Z,9.22
2022-10-26T00:11:27.441Z,9.20
2022-10-26T00:12:27.604Z,9.16
2022-10-26T00:13:27.764Z,9.19
2022-10-26T00:14:27.885Z,9.22
2022-10-26T00:15:28.011Z,9.26
2022-10-26T00:16:28.144Z,9.27
2022-10-26T00:17:28.333Z,9.31
2022-10-26T00:18:28.459Z,9.31
2022-10-26T00:19:28.584Z,9.32
2022-10-26T00:20:28.756Z,9.34
2022-10-26T00:21:28.885Z,9.35
2022-10-26T00:22:29.023Z,9.37
2022-10-26T00:23:29.175Z,9.37
2022-10-26T00:24:29.307Z,9.35
2022-10-26T00:25:29.461Z,9.35
2022-10-26T00:26:29.589Z,9.37
2022-10-26T00:27:29.714Z,9.38
2022-10-26T00:28:29.877Z,9.38
2022-10-26T00:29:30.019Z,9.42
2022-10-26T00:30:30.092Z,9.45
2022-10-26T00:31:30.221Z,9.44
2022-10-26T00:32:30.399Z,9.45
2022-10-26T00:33:30.481Z,9.48
2022-10-26T00:34:30.669Z,9.49
2022-10-26T00:35:45.128Z,9.50
2022-10-26T00:36:31.962Z,9.52
2022-10-26T00:37:31.082Z,9.55
2022-10-26T00:38:31.228Z,9.58
2022-10-26T00:39:31.368Z,9.58
2022-10-26T00:40:31.469Z,9.59
2022-10-26T00:41:31.601Z,9.60
2022-10-26T00:42:31.723Z,9.62
2022-10-26T00:43:31.850Z,9.63
2022-10-26T00:44:36.056Z,9.65
2022-10-26T00:45:32.077Z,9.62
2022-10-26T00:46:32.203Z,9.68
2022-10-26T00:47:32.363Z,9.70
2022-10-26T00:48:32.429Z,9.71
2022-10-26T00:49:32.582Z,9.71
2022-10-26T00:50:32.723Z,9.71
2022-10-26T00:51:32.975Z,9.71
2022-10-26T00:52:33.010Z,9.71
2022-10-26T00:53:33.139Z,9.71
2022-10-26T00:54:33.272Z,9.75
2022-10-26T00:55:33.455Z,9.73
2022-10-26T00:56:33.579Z,9.74
2022-10-26T00:57:33.736Z,9.75
2022-10-26T00:58:33.824Z,9.75
2022-10-26T00:59:33.962Z,9.75
2022-10-26T01:00:34.105Z,9.77
2022-10-26T01:01:34.265Z,9.77
2022-10-26T01:02:34.340Z,9.78
2022-10-26T01:03:34.493Z,9.78
2022-10-26T01:04:34.635Z,9.80
2022-10-26T01:05:34.823Z,9.80
2022-10-26T01:06:34.961Z,9.77
2022-10-26T01:07:35.090Z,9.77
2022-10-26T01:08:35.239Z,9.78
2022-10-26T01:09:35.408Z,9.77
2022-10-26T01:10:35.478Z,9.78
2022-10-26T01:11:35.629Z,9.78
2022-10-26T01:12:35.782Z,9.80
2022-10-26T01:13:35.897Z,9.81
2022-10-26T01:14:36.048Z,9.83
2022-10-26T01:15:36.209Z,9.81
2022-10-26T01:16:38.395Z,9.85
2022-10-26T01:17:36.490Z,9.83
2022-10-26T01:18:36.631Z,9.83
2022-10-26T01:19:36.757Z,9.86
2022-10-26T01:20:36.946Z,9.88
2022-10-26T01:21:37.079Z,9.86
2022-10-26T01:22:37.205Z,9.88
2022-10-26T01:23:37.363Z,9.86
2022-10-26T01:24:37.490Z,9.88
2022-10-26T01:25:37.650Z,9.88
2022-10-26T01:26:37.861Z,9.83
2022-10-26T01:27:37.907Z,9.85
2022-10-26T01:28:38.059Z,9.85
2022-10-26T01:29:38.188Z,9.86
2022-10-26T01:30:38.345Z,9.88
2022-10-26T01:31:38.496Z,9.88
2022-10-26T01:32:38.631Z,9.89
2022-10-26T01:33:38.757Z,9.88
2022-10-26T01:34:38.917Z,9.86
2022-10-26T01:35:39.049Z,9.85
2022-10-26T01:36:39.170Z,9.88
2022-10-26T01:37:39.327Z,9.86
2022-10-26T01:38:39.449Z,9.86
2022-10-26T01:39:39.572Z,9.88
2022-10-26T01:40:39.706Z,9.88
2022-10-26T01:41:39.839Z,9.88
2022-10-26T01:42:39.996Z,9.92
2022-10-26T01:43:40.157Z,9.89
2022-10-26T01:44:40.280Z,9.89
2022-10-26T01:45:40.426Z,9.88
2022-10-26T01:46:40.557Z,9.89
2022-10-26T01:47:40.685Z,9.89
2022-10-26T01:48:40.847Z,9.89
2022-10-26T01:49:40.987Z,9.88
2022-10-26T01:50:41.074Z,9.86
2022-10-26T01:51:41.194Z,9.88
2022-10-26T01:52:41.315Z,9.88
2022-10-26T01:53:41.435Z,9.89
2022-10-26T01:54:41.577Z,9.88
2022-10-26T01:55:41.697Z,9.89
2022-10-26T01:56:41.817Z,9.91
2022-10-26T01:57:41.957Z,9.93
2022-10-26T01:58:42.071Z,9.93
2022-10-26T01:59:42.214Z,9.93
2022-10-26T02:00:42.316Z,9.96
2022-10-26T02:01:42.625Z,9.96
2022-10-26T02:02:42.595Z,9.96
2022-10-26T02:03:42.833Z,9.93
2022-10-26T02:04:42.865Z,9.93
2022-10-26T02:05:43.036Z,9.96
2022-10-26T02:06:43.165Z,9.96
2022-10-26T02:07:43.283Z,9.96
2022-10-26T02:08:43.445Z,9.99
2022-10-26T02:09:47.365Z,9.98
2022-10-26T02:10:43.686Z,9.99
2022-10-26T02:11:43.815Z,9.98
2022-10-26T02:12:43.932Z,9.95
2022-10-26T02:13:44.067Z,9.93
2022-10-26T02:14:44.180Z,9.93
2022-10-26T02:15:44.324Z,9.96
2022-10-26T02:16:44.464Z,9.99
2022-10-26T02:17:44.591Z,9.99
2022-10-26T02:18:44.735Z,9.96
2022-10-26T02:19:44.833Z,9.99
2022-10-26T02:20:44.993Z,9.96
2022-10-26T02:21:45.133Z,9.98
2022-10-26T02:22:45.280Z,9.99
2022-10-26T02:23:45.413Z,10.01
2022-10-26T02:24:45.565Z,9.98
2022-10-26T02:25:45.701Z,9.99
2022-10-26T02:26:45.862Z,10.01
2022-10-26T02:27:46.282Z,10.01
2022-10-26T02:28:46.149Z,10.02
2022-10-26T02:29:46.338Z,10.02
2022-10-26T02:30:46.423Z,10.01
2022-10-26T02:31:46.534Z,10.02
2022-10-26T02:32:46.641Z,9.99
2022-10-26T02:33:46.763Z,10.01
2022-10-26T02:34:46.842Z,10.02
2022-10-26T02:35:46.983Z,10.02
2022-10-26T02:36:47.141Z,10.02
2022-10-26T02:37:47.614Z,10.02
2022-10-26T02:38:47.435Z,10.01
2022-10-26T02:39:47.572Z,10.04
2022-10-26T02:40:47.702Z,10.01
2022-10-26T02:41:47.838Z,10.01
2022-10-26T02:42:48.013Z,10.02
2022-10-26T02:43:48.096Z,10.04
2022-10-26T02:44:48.187Z,10.02
2022-10-26T02:45:48.318Z,10.01
2022-10-26T02:46:48.523Z,10.01
2022-10-26T02:47:48.932Z,10.04
2022-10-26T02:48:48.751Z,10.07
2022-10-26T02:49:48.881Z,10.07
2022-10-26T02:50:49.011Z,10.07
2022-10-26T02:52:49.670Z,10.04
2022-10-26T02:53:49.396Z,10.02
2022-10-26T02:54:49.519Z,10.02
2022-10-26T02:55:49.667Z,10.04
2022-10-26T02:56:49.761Z,10.04
2022-10-26T02:57:49.922Z,10.06
2022-10-26T02:58:50.079Z,10.06
2022-10-26T02:59:50.188Z,10.06
2022-10-26T03:00:50.281Z,10.06
2022-10-26T03:01:50.467Z,10.07
2022-10-26T03:02:50.912Z,10.10
2022-10-26T03:03:50.660Z,10.10
2022-10-26T03:04:50.750Z,10.07
2022-10-26T03:05:50.889Z,10.10
2022-10-26T03:06:51.051Z,10.11
2022-10-26T03:07:51.181Z,10.13
2022-10-26T03:08:51.322Z,10.13
2022-10-26T03:09:51.461Z,10.16
2022-10-26T03:10:51.626Z,10.16
2022-10-26T03:11:51.761Z,10.18
2022-10-26T03:12:52.288Z,10.18
2022-10-26T03:13:52.008Z,10.18
2022-10-26T03:14:52.149Z,10.20
2022-10-26T03:15:52.286Z,10.20
2022-10-26T03:16:52.453Z,10.20
2022-10-26T03:17:52.735Z,10.18
2022-10-26T03:18:52.717Z,10.22
2022-10-26T03:19:52.825Z,10.22
2022-10-26T03:20:52.978Z,10.25
2022-10-26T03:21:53.117Z,10.25
2022-10-26T03:22:53.271Z,10.28
2022-10-26T03:23:53.387Z,10.26
2022-10-26T03:24:53.538Z,10.29
2022-10-26T03:25:53.699Z,10.28
2022-10-26T03:26:56.063Z,10.28
2022-10-26T03:27:54.009Z,10.29
2022-10-26T03:28:54.138Z,10.28
2022-10-26T03:29:54.310Z,10.28
2022-10-26T03:30:54.419Z,10.29
2022-10-26T03:31:54.555Z,10.29
2022-10-26T03:32:54.728Z,10.29
2022-10-26T03:33:54.878Z,10.29
2022-10-26T03:34:55.016Z,10.28
2022-10-26T03:35:55.156Z,10.28
2022-10-26T03:36:55.283Z,10.29
2022-10-26T03:37:55.422Z,10.26
2022-10-26T03:38:55.598Z,10.25
2022-10-26T03:39:55.697Z,10.28
2022-10-26T03:40:55.867Z,10.28
2022-10-26T03:41:56.085Z,10.31
2022-10-26T03:42:56.170Z,10.31
2022-10-26T03:43:56.337Z,10.32
2022-10-26T03:44:56.427Z,10.34
2022-10-26T03:45:56.568Z,10.32
2022-10-26T03:46:56.669Z,10.36
2022-10-26T03:47:56.819Z,10.36
2022-10-26T03:48:56.920Z,10.38
2022-10-26T03:49:57.075Z,10.38
2022-10-26T03:50:57.186Z,10.43
2022-10-26T03:51:57.347Z,10.43
2022-10-26T03:52:57.506Z,10.43
2022-10-26T03:53:57.606Z,10.46
2022-10-26T03:54:57.721Z,10.46
2022-10-26T03:55:57.845Z,10.46
2022-10-26T03:56:58.006Z,10.47
2022-10-26T03:57:58.146Z,10.49
2022-10-26T03:58:58.274Z,10.47
2022-10-26T03:59:58.407Z,10.51
2022-10-26T04:00:58.547Z,10.51
2022-10-26T04:01:58.736Z,10.49
2022-10-26T04:02:58.774Z,10.51
2022-10-26T04:03:58.971Z,10.51
2022-10-26T04:04:59.057Z,10.54
2022-10-26T04:05:59.203Z,10.54
2022-10-26T04:06:59.355Z,10.54
2022-10-26T04:07:59.466Z,10.55
2022-10-26T04:08:59.563Z,10.55
2022-10-26T04:09:59.716Z,10.55
2022-10-26T04:11:02.413Z,10.58
2022-10-26T04:11:59.923Z,10.58
2022-10-26T04:13:00.076Z,10.60
2022-10-26T04:14:00.163Z,10.60
2022-10-26T04:15:00.463Z,10.60
2022-10-26T04:16:00.530Z,10.63
2022-10-26T04:17:00.612Z,10.63
2022-10-26T04:18:00.704Z,10.63
2022-10-26T04:19:00.849Z,10.62
2022-10-26T04:20:00.967Z,10.65
2022-10-26T04:21:01.066Z,10.65
2022-10-26T04:22:01.204Z,10.66
2022-10-26T04:23:01.350Z,10.68
2022-10-26T04:24:01.507Z,10.69
2022-10-26T04:25:01.647Z,10.70
2022-10-26T04:26:01.764Z,10.70
2022-10-26T04:27:01.936Z,10.72
2022-10-26T04:28:02.093Z,10.72
2022-10-26T04:29:02.193Z,10.75
2022-10-26T04:30:02.304Z,10.75
2022-10-26T04:31:02.465Z,10.76
2022-10-26T04:32:02.554Z,10.76
2022-10-26T04:33:02.701Z,10.76
2022-10-26T04:34:02.852Z,10.76
2022-10-26T04:35:03.006Z,10.76
2022-10-26T04:36:03.144Z,10.76
2022-10-26T04:37:03.284Z,10.73
2022-10-26T04:38:03.422Z,10.73
2022-10-26T04:39:03.587Z,10.75
2022-10-26T04:40:03.780Z,10.76
2022-10-26T04:41:03.841Z,10.75
2022-10-26T04:42:03.973Z,10.76
2022-10-26T04:43:04.114Z,10.75
2022-10-26T04:44:04.284Z,10.73
2022-10-26T04:45:04.461Z,10.72
2022-10-26T04:46:04.509Z,10.70
2022-10-26T04:47:04.655Z,10.72
2022-10-26T04:48:04.785Z,10.69
2022-10-26T04:49:04.922Z,10.69
2022-10-26T04:50:05.104Z,10.68
2022-10-26T04:51:05.200Z,10.66
2022-10-26T04:52:05.332Z,10.65
2022-10-26T04:53:05.482Z,10.66
2022-10-26T04:54:05.609Z,10.66
2022-10-26T04:55:05.768Z,10.66
2022-10-26T04:56:07.376Z,10.66
2022-10-26T04:57:06.080Z,10.66
2022-10-26T04:58:06.173Z,10.66
2022-10-26T04:59:06.299Z,10.65
2022-10-26T05:00:06.492Z,10.65
2022-10-26T05:01:06.732Z,10.66
2022-10-26T05:02:06.791Z,10.66
2022-10-26T05:03:06.832Z,10.66
2022-10-26T05:04:06.959Z,10.66
2022-10-26T05:05:08.924Z,10.68
2022-10-26T05:06:07.220Z,10.65
2022-10-26T05:07:07.400Z,10.65
2022-10-26T05:08:07.494Z,10.63
2022-10-26T05:09:07.629Z,10.65
2022-10-26T05:10:07.795Z,10.66
2022-10-26T05:11:07.940Z,10.66
2022-10-26T05:12:08.036Z,10.65
2022-10-26T05:13:08.183Z,10.68
2022-10-26T05:14:08.281Z,10.66
2022-10-26T05:15:08.737Z,10.66
2022-10-26T05:16:08.560Z,10.66
2022-10-26T05:17:08.669Z,10.65
2022-10-26T05:18:08.764Z,10.66
2022-10-26T05:19:08.928Z,10.65
2022-10-26T05:20:09.017Z,10.65
2022-10-26T05:21:09.164Z,10.66
2022-10-26T05:22:09.270Z,10.66
2022-10-26T05:23:09.370Z,10.68
2022-10-26T05:24:11.680Z,10.69
2022-10-26T05:25:09.651Z,10.69
2022-10-26T05:26:10.479Z,10.70
2022-10-26T05:27:09.882Z,10.72
2022-10-26T05:28:10.054Z,10.73
2022-10-26T05:29:10.138Z,10.73
2022-10-26T05:30:10.346Z,10.73
2022-10-26T05:31:10.421Z,10.75
2022-10-26T05:32:10.538Z,10.75
2022-10-26T05:33:10.639Z,10.78
2022-10-26T05:34:10.758Z,10.81
2022-10-26T05:35:10.920Z,10.83
2022-10-26T05:36:11.075Z,10.86
2022-10-26T05:37:11.220Z,10.87
2022-10-26T05:38:11.380Z,10.86
2022-10-26T05:39:11.450Z,10.87
2022-10-26T05:40:11.600Z,10.88
2022-10-26T05:41:11.710Z,10.90
2022-10-26T05:42:11.874Z,10.88
2022-10-26T05:43:11.949Z,10.90
2022-10-26T05:44:12.101Z,10.90
2022-10-26T05:45:12.249Z,10.91
2022-10-26T05:46:12.375Z,10.93
2022-10-26T05:47:12.541Z,10.94
2022-10-26T05:48:12.689Z,10.98
2022-10-26T05:49:12.821Z,11.01
2022-10-26T05:50:12.895Z,11.02
2022-10-26T05:51:13.049Z,11.03
2022-10-26T05:52:13.890Z,11.02
2022-10-26T05:53:13.280Z,11.05
2022-10-26T05:54:14.192Z,11.05
2022-10-26T05:55:13.564Z,11.05
2022-10-26T05:56:14.310Z,11.06
2022-10-26T05:57:13.776Z,11.05
2022-10-26T05:58:13.916Z,11.05
2022-10-26T05:59:14.090Z,11.03
2022-10-26T06:00:14.200Z,11.06
2022-10-26T06:01:14.482Z,11.09
2022-10-26T06:02:14.567Z,11.09
2022-10-26T06:03:14.634Z,11.11
2022-10-26T06:04:14.766Z,11.11
2022-10-26T06:05:14.897Z,11.11
2022-10-26T06:06:15.029Z,11.11
2022-10-26T06:07:15.169Z,11.12
2022-10-26T06:08:15.287Z,11.12
2022-10-26T06:09:15.437Z,11.11
2022-10-26T06:10:15.566Z,11.12
2022-10-26T06:11:15.707Z,11.16
2022-10-26T06:12:19.275Z,11.17
2022-10-26T06:13:16.028Z,11.19
2022-10-26T06:14:16.138Z,11.17
2022-10-26T06:15:16.250Z,11.17
2022-10-26T06:16:16.348Z,11.19
2022-10-26T06:17:16.486Z,11.19
2022-10-26T06:18:16.623Z,11.19
2022-10-26T06:19:16.784Z,11.20
2022-10-26T06:20:16.878Z,11.21
2022-10-26T06:21:17.006Z,11.21
2022-10-26T06:22:17.163Z,11.23
2022-10-26T06:23:17.256Z,11.23
2022-10-26T06:24:17.429Z,11.23
2022-10-26T06:25:17.519Z,11.23
2022-10-26T06:26:17.615Z,11.26
2022-10-26T06:27:19.553Z,11.24
2022-10-26T06:28:17.864Z,11.28
2022-10-26T06:29:18.072Z,11.27
2022-10-26T06:30:18.143Z,11.26
2022-10-26T06:31:18.244Z,11.27
2022-10-26T06:32:18.393Z,11.27
2022-10-26T06:33:29.016Z,11.26
2022-10-26T06:34:19.645Z,11.26
2022-10-26T06:35:18.784Z,11.27
2022-10-26T06:36:18.885Z,11.28
2022-10-26T06:37:19.032Z,11.23
2022-10-26T06:38:19.173Z,11.27
2022-10-26T06:39:19.316Z,11.28
2022-10-26T06:40:19.463Z,11.33
2022-10-26T06:41:19.580Z,11.31
2022-10-26T06:42:19.685Z,11.33
2022-10-26T06:43:19.824Z,11.38
2022-10-26T06:44:19.953Z,11.38
2022-10-26T06:45:20.110Z,11.39
2022-10-26T06:46:20.196Z,11.41
2022-10-26T06:47:23.432Z,11.39
2022-10-26T06:48:20.445Z,11.41
2022-10-26T06:49:20.591Z,11.44
2022-10-26T06:50:21.483Z,11.45
2022-10-26T06:51:20.864Z,11.48
2022-10-26T06:52:21.002Z,11.48
2022-10-26T06:53:21.154Z,11.48
2022-10-26T06:54:21.255Z,11.53
2022-10-26T06:55:21.421Z,11.51
2022-10-26T06:56:21.494Z,11.54
2022-10-26T06:57:21.649Z,11.56
2022-10-26T06:58:23.203Z,11.59
2022-10-26T06:59:21.902Z,11.60
2022-10-26T07:00:22.795Z,11.63
2022-10-26T07:01:22.223Z,11.64
2022-10-26T07:02:22.389Z,11.67
2022-10-26T07:03:22.395Z,125.00
2022-10-26T07:04:22.530Z,11.69
2022-10-26T07:05:22.726Z,11.70
2022-10-26T07:06:22.795Z,11.74
2022-10-26T07:07:22.944Z,11.78
2022-10-26T07:08:23.072Z,11.77
2022-10-26T07:09:23.160Z,11.78
2022-10-26T07:10:23.307Z,11.82
2022-10-26T07:11:24.205Z,11.85
2022-10-26T07:12:23.585Z,11.88
2022-10-26T07:13:23.751Z,11.96
2022-10-26T07:14:23.823Z,11.98
2022-10-26T07:15:24.011Z,12.00
2022-10-26T07:16:24.073Z,12.03
2022-10-26T07:17:24.243Z,12.04
2022-10-26T07:18:24.339Z,12.08
2022-10-26T07:19:24.461Z,12.13
2022-10-26T07:20:24.701Z,12.13
2022-10-26T07:21:24.739Z,12.19
2022-10-26T07:22:24.840Z,12.21
2022-10-26T07:23:25.027Z,12.23
2022-10-26T07:24:25.113Z,12.29
2022-10-26T07:25:25.241Z,12.31
2022-10-26T07:26:25.392Z,12.33
2022-10-26T07:27:25.550Z,12.37
2022-10-26T07:28:25.714Z,12.38
2022-10-26T07:29:25.842Z,12.43
2022-10-26T07:30:25.933Z,12.44
2022-10-26T07:31:26.050Z,12.46
2022-10-26T07:32:26.185Z,12.51
2022-10-26T07:33:26.274Z,12.54
2022-10-26T07:34:26.421Z,12.55
2022-10-26T07:35:26.540Z,12.56
2022-10-26T07:36:26.642Z,12.59
2022-10-26T07:37:26.795Z,12.61
2022-10-26T07:38:26.915Z,12.62
2022-10-26T07:39:27.025Z,12.63
2022-10-26T07:40:27.131Z,12.63
2022-10-26T07:41:27.281Z,12.67
2022-10-26T07:42:27.431Z,12.67
2022-10-26T07:43:27.578Z,12.69
2022-10-26T07:44:27.658Z,12.70
2022-10-26T07:45:27.812Z,12.71
2022-10-26T07:46:27.940Z,12.73
2022-10-26T07:47:28.652Z,12.76
2022-10-26T07:48:28.172Z,12.79
2022-10-26T07:49:28.259Z,12.80
2022-10-26T07:50:28.430Z,12.81
2022-10-26T07:51:28.532Z,12.87
2022-10-26T07:52:28.631Z,12.88
2022-10-26T07:53:28.751Z,12.89
2022-10-26T07:54:28.878Z,12.92
2022-10-26T07:55:28.973Z,12.96
2022-10-26T07:56:29.092Z,12.95
2022-10-26T07:57:29.229Z,12.96
2022-10-26T07:58:29.345Z,12.96
2022-10-26T07:59:29.467Z,12.98
2022-10-26T08:00:29.642Z,12.98
2022-10-26T08:01:29.771Z,12.99
2022-10-26T08:02:30.548Z,12.99
2022-10-26T08:03:29.942Z,12.99
2022-10-26T08:04:30.063Z,13.01
2022-10-26T08:06:30.309Z,13.04
2022-10-26T08:07:30.450Z,13.04
2022-10-26T08:08:30.542Z,13.03
2022-10-26T08:09:30.656Z,13.03
2022-10-26T08:10:30.821Z,13.04
2022-10-26T08:11:30.897Z,13.09
2022-10-26T08:12:31.059Z,13.07
2022-10-26T08:13:31.203Z,13.07
2022-10-26T08:14:31.766Z,13.12
2022-10-26T08:15:31.398Z,13.10
2022-10-26T08:16:31.532Z,13.12
2022-10-26T08:17:31.740Z,13.12
2022-10-26T08:18:31.812Z,13.12
2022-10-26T08:19:31.950Z,13.16
2022-10-26T08:20:32.118Z,13.13
2022-10-26T08:21:40.394Z,13.12
2022-10-26T08:22:33.362Z,13.17
2022-10-26T08:23:32.427Z,13.19
2022-10-26T08:24:32.600Z,13.24
2022-10-26T08:25:32.687Z,13.25
2022-10-26T08:26:32.798Z,13.29
2022-10-26T08:27:32.931Z,13.32
2022-10-26T08:28:33.044Z,13.41
2022-10-26T08:29:33.153Z,13.46
2022-10-26T08:31:33.394Z,13.57
2022-10-26T08:32:33.509Z,13.65
2022-10-26T08:33:33.608Z,13.79
2022-10-26T08:34:33.708Z,13.88
2022-10-26T08:35:33.848Z,13.99
2022-10-26T08:36:34.008Z,14.09
2022-10-26T08:37:34.244Z,14.21
2022-10-26T08:38:34.227Z,14.36
2022-10-26T08:39:34.355Z,14.45
2022-10-26T08:40:34.473Z,14.61
2022-10-26T08:41:34.561Z,14.82
2022-10-26T08:42:34.709Z,14.98
2022-10-26T08:43:34.801Z,15.15
2022-10-26T08:44:34.971Z,15.34
2022-10-26T08:45:37.119Z,15.55
2022-10-26T08:46:35.189Z,15.59
2022-10-26T08:47:35.330Z,15.64
2022-10-26T08:48:35.418Z,15.73
2022-10-26T08:49:35.540Z,15.81
2022-10-26T08:50:39.304Z,15.93
2022-10-26T08:51:36.792Z,16.08
2022-10-26T08:52:35.939Z,16.34
2022-10-26T08:53:36.078Z,16.60
2022-10-26T08:54:36.157Z,16.96
2022-10-26T08:55:36.293Z,17.35
2022-10-26T08:56:36.387Z,17.39
2022-10-26T08:57:36.508Z,17.53
2022-10-26T08:58:36.611Z,17.86
2022-10-26T08:59:36.766Z,18.07
2022-10-26T09:00:37.097Z,18.36
2022-10-26T09:01:37.125Z,18.56
2022-10-26T09:02:37.149Z,18.78
2022-10-26T09:03:37.246Z,19.12
2022-10-26T09:04:37.399Z,19.43
2022-10-26T09:05:37.519Z,19.87
2022-10-26T09:06:37.710Z,20.13
2022-10-26T09:07:37.841Z,20.27
2022-10-26T09:08:37.878Z,20.37
2022-10-26T09:09:37.978Z,20.71
2022-10-26T09:10:38.150Z,20.96
2022-10-26T09:11:38.229Z,20.94
2022-10-26T09:12:38.379Z,20.93
2022-10-26T09:13:38.479Z,21.15
2022-10-26T09:14:38.640Z,21.26
2022-10-26T09:15:38.762Z,21.01
2022-10-26T09:16:38.869Z,21.28
2022-10-26T09:17:39.008Z,21.55
2022-10-26T09:18:39.879Z,21.53
2022-10-26T09:19:39.371Z,21.58
2022-10-26T09:20:39.368Z,22.06
2022-10-26T09:21:39.456Z,22.41
2022-10-26T09:22:39.610Z,22.72
2022-10-26T09:23:39.802Z,22.70
2022-10-26T09:24:39.848Z,22.52
2022-10-26T09:25:39.990Z,22.48
2022-10-26T09:26:40.083Z,22.67
2022-10-26T09:27:40.203Z,22.94
2022-10-26T09:28:40.322Z,23.14
2022-10-26T09:29:41.143Z,22.85
2022-10-26T09:30:41.250Z,22.52
2022-10-26T09:31:43.209Z,21.94
2022-10-26T09:32:40.808Z,21.49
2022-10-26T09:33:40.903Z,20.94
2022-10-26T09:34:41.050Z,21.16
2022-10-26T09:35:41.212Z,20.94
2022-10-26T09:36:41.259Z,20.53
2022-10-26T09:37:41.372Z,20.20
2022-10-26T09:38:41.512Z,20.07
2022-10-26T09:39:41.582Z,20.02
2022-10-26T09:40:41.732Z,20.08
2022-10-26T09:41:42.693Z,20.01
2022-10-26T09:42:43.453Z,20.00
2022-10-26T09:43:42.131Z,20.07
2022-10-26T09:44:42.327Z,20.44
2022-10-26T09:45:42.342Z,20.81
2022-10-26T09:46:42.551Z,21.08
2022-10-26T09:47:42.604Z,20.82
2022-10-26T09:48:42.693Z,20.53
2022-10-26T09:49:42.837Z,20.38
2022-10-26T09:50:42.924Z,20.25
2022-10-26T09:51:43.035Z,20.63
2022-10-26T09:52:43.245Z,21.03
2022-10-26T09:53:43.297Z,21.05
2022-10-26T09:54:43.443Z,21.22
2022-10-26T09:55:43.572Z,21.82
2022-10-26T09:56:43.705Z,22.17
2022-10-26T09:57:43.808Z,22.52
2022-10-26T09:58:43.900Z,22.69
2022-10-26T09:59:44.012Z,22.29
2022-10-26T10:00:44.173Z,21.77
2022-10-26T10:01:44.311Z,22.14
2022-10-26T10:02:44.486Z,22.42
2022-10-26T10:03:45.208Z,22.48
2022-10-26T10:04:44.724Z,22.93
2022-10-26T10:05:53.041Z,23.16
2022-10-26T10:06:46.525Z,23.23
2022-10-26T10:07:45.054Z,22.74
2022-10-26T10:08:45.292Z,22.64
2022-10-26T10:09:45.283Z,22.38
2022-10-26T10:10:45.404Z,22.66
2022-10-26T10:11:45.520Z,22.85
2022-10-26T10:12:45.623Z,22.78
2022-10-26T10:13:45.776Z,21.99
2022-10-26T10:14:45.897Z,21.56
2022-10-26T10:15:45.996Z,21.33
2022-10-26T10:16:46.171Z,21.30
2022-10-26T10:17:48.406Z,20.85
2022-10-26T10:18:46.378Z,20.63
2022-10-26T10:19:46.474Z,20.60
2022-10-26T10:20:46.636Z,20.66
2022-10-26T10:21:46.776Z,21.24
2022-10-26T10:22:46.865Z,21.93
2022-10-26T10:23:47.045Z,21.98
2022-10-26T10:24:47.263Z,21.27
2022-10-26T10:25:47.201Z,21.26
2022-10-26T10:26:47.365Z,21.89
2022-10-26T10:27:47.711Z,22.66
2022-10-26T10:28:47.577Z,22.67
2022-10-26T10:29:47.710Z,22.96
2022-10-26T10:30:47.806Z,23.77
2022-10-26T10:31:47.918Z,24.44
2022-10-26T10:32:48.252Z,24.68
2022-10-26T10:33:48.177Z,24.26
2022-10-26T10:34:48.359Z,24.97
2022-10-26T10:35:49.381Z,25.53
2022-10-26T10:36:48.578Z,25.45
2022-10-26T10:37:48.797Z,25.48
2022-10-26T10:38:48.850Z,25.94
2022-10-26T10:39:48.959Z,25.81
2022-10-26T10:40:49.106Z,25.16
2022-10-26T10:41:49.301Z,25.17
2022-10-26T10:42:49.625Z,24.97
2022-10-26T10:43:49.519Z,24.42
2022-10-26T10:44:49.597Z,24.14
2022-10-26T10:45:49.748Z,24.08
2022-10-26T10:46:49.867Z,24.49
2022-10-26T10:47:50.550Z,24.46
2022-10-26T10:48:50.126Z,24.59
2022-10-26T10:49:50.242Z,24.75
2022-10-26T10:50:50.360Z,24.61
2022-10-26T10:51:50.483Z,24.39
2022-10-26T10:52:50.930Z,24.56
2022-10-26T10:53:50.710Z,24.75
2022-10-26T10:54:51.168Z,25.09
2022-10-26T10:56:51.066Z,25.51
2022-10-26T10:57:51.574Z,25.74
2022-10-26T10:58:51.301Z,26.04
2022-10-26T10:59:51.510Z,25.08
2022-10-26T11:00:51.591Z,24.59
2022-10-26T11:01:51.794Z,24.15
2022-10-26T11:02:51.825Z,24.15
2022-10-26T11:03:51.930Z,24.41
2022-10-26T11:04:52.074Z,24.34
2022-10-26T11:05:52.188Z,25.09
2022-10-26T11:06:52.289Z,25.34
2022-10-26T11:07:52.636Z,25.86
2022-10-26T11:08:52.512Z,25.98
2022-10-26T11:10:52.794Z,26.12
2022-10-26T11:11:52.964Z,26.41
2022-10-26T11:12:53.090Z,25.74
2022-10-26T11:13:53.190Z,24.84
2022-10-26T11:14:53.301Z,24.83
2022-10-26T11:15:53.413Z,25.29
2022-10-26T11:16:53.524Z,24.74
2022-10-26T11:17:54.393Z,24.94
2022-10-26T11:18:53.780Z,25.26
2022-10-26T11:19:53.919Z,25.08
2022-10-26T11:20:54.097Z,24.53
2022-10-26T11:21:54.201Z,24.37
2022-10-26T11:22:54.598Z,24.44
2022-10-26T11:23:54.459Z,24.82
2022-10-26T11:24:54.565Z,25.59
2022-10-26T11:25:54.759Z,25.74
2022-10-26T11:26:54.771Z,25.91
2022-10-26T11:27:54.997Z,25.98
2022-10-26T11:28:55.089Z,25.89
2022-10-26T11:29:55.175Z,24.93
2022-10-26T11:30:55.281Z,24.59
2022-10-26T11:31:55.408Z,24.87
2022-10-26T11:32:55.525Z,25.12
2022-10-26T11:34:55.745Z,24.99
2022-10-26T11:35:55.892Z,25.02
2022-10-26T11:36:56.136Z,25.26
2022-10-26T11:37:56.166Z,25.29
2022-10-26T11:38:57.605Z,24.80
2022-10-26T11:39:56.365Z,24.19
2022-10-26T11:40:56.454Z,24.36
2022-10-26T11:41:56.614Z,24.41
2022-10-26T11:42:56.765Z,24.67
2022-10-26T11:43:56.857Z,24.45
2022-10-26T11:44:57.007Z,24.48
2022-10-26T11:45:57.108Z,23.69
2022-10-26T11:46:57.220Z,23.35
2022-10-26T11:47:57.375Z,23.35
2022-10-26T11:48:57.478Z,23.75
2022-10-26T11:49:57.574Z,23.82
2022-10-26T11:50:57.688Z,23.18
2022-10-26T11:51:57.796Z,23.25
2022-10-26T11:52:57.914Z,23.42
2022-10-26T11:53:58.014Z,23.54
2022-10-26T11:54:58.128Z,24.37
2022-10-26T11:55:58.255Z,24.63
2022-10-26T11:56:58.408Z,24.86
2022-10-26T11:57:58.515Z,24.83
2022-10-26T11:58:58.636Z,25.01
2022-10-26T11:59:58.731Z,25.59
2022-10-26T12:00:58.840Z,25.67
2022-10-26T12:01:58.995Z,25.01
2022-10-26T12:02:59.131Z,24.63
2022-10-26T12:03:59.241Z,24.97
2022-10-26T12:04:59.327Z,24.44
2022-10-26T12:05:59.487Z,23.89
2022-10-26T12:06:59.597Z,24.66
2022-10-26T12:07:59.755Z,25.45
2022-10-26T12:08:59.958Z,25.63
2022-10-26T12:10:00.022Z,25.86
2022-10-26T12:11:00.172Z,26.12
2022-10-26T12:12:00.269Z,26.66
2022-10-26T12:13:00.392Z,26.60
2022-10-26T12:14:00.572Z,25.90
2022-10-26T12:15:00.658Z,25.94
2022-10-26T12:16:04.708Z,26.21
2022-10-26T12:17:00.984Z,26.09
2022-10-26T12:18:01.032Z,25.48
2022-10-26T12:19:01.158Z,25.49
2022-10-26T12:20:01.430Z,25.49
2022-10-26T12:21:01.415Z,24.89
2022-10-26T12:22:01.525Z,24.92
2022-10-26T12:23:01.630Z,24.41
2022-10-26T12:24:01.790Z,24.49
2022-10-26T12:25:01.898Z,24.45
2022-10-26T12:26:02.019Z,24.08
2022-10-26T12:27:02.117Z,23.81
2022-10-26T12:28:02.269Z,23.96
2022-10-26T12:29:02.445Z,24.37
2022-10-26T12:30:02.519Z,23.84
2022-10-26T12:31:02.629Z,24.30
2022-10-26T12:32:02.730Z,24.45
2022-10-26T12:33:02.842Z,24.05
2022-10-26T12:34:02.964Z,24.15
2022-10-26T12:35:03.098Z,24.74
2022-10-26T12:36:03.241Z,25.61
2022-10-26T12:37:03.347Z,26.46
2022-10-26T12:38:03.452Z,26.75
2022-10-26T12:39:03.590Z,26.11
2022-10-26T12:40:03.770Z,25.83
2022-10-26T12:41:03.881Z,25.90
2022-10-26T12:42:03.991Z,25.30
2022-10-26T12:43:04.082Z,25.17
2022-10-26T12:44:07.462Z,24.77
2022-10-26T12:45:05.414Z,24.84
2022-10-26T12:46:04.501Z,24.60
2022-10-26T12:47:04.600Z,24.56
2022-10-26T12:48:10.802Z,24.48
2022-10-26T12:49:05.834Z,24.49
2022-10-26T12:50:04.994Z,25.22
2022-10-26T12:51:05.116Z,25.54
2022-10-26T12:52:05.555Z,25.67
2022-10-26T12:53:05.333Z,25.44
2022-10-26T12:54:05.469Z,25.17
2022-10-26T12:55:05.593Z,25.26
2022-10-26T12:56:06.392Z,25.26
2022-10-26T12:57:05.853Z,24.66
2022-10-26T12:58:06.045Z,24.67
2022-10-26T12:59:06.762Z,25.01
2022-10-26T13:00:06.222Z,25.23
2022-10-26T13:01:06.735Z,25.44
2022-10-26T13:02:06.504Z,25.74
2022-10-26T13:03:06.674Z,25.72
2022-10-26T13:04:08.207Z,25.36
2022-10-26T13:05:08.093Z,24.93